createdAt,value
2022-10-05T00:02:59.795Z,77.29
2022-10-05T00:06:30.063Z,76.95
2022-10-05T00:09:59.250Z,76.06
2022-10-05T00:13:26.776Z,75.87
2022-10-05T00:16:48.761Z,75.16
2022-10-05T00:20:19.495Z,75.86
2022-10-05T00:23:41.066Z,76.77
2022-10-05T00:27:19.000Z,76.37
2022-10-05T00:30:45.803Z,76.00
2022-10-05T00:34:07.297Z,76.45
2022-10-05T00:37:28.878Z,76.48
2022-10-05T00:41:05.736Z,76.87
2022-10-05T00:44:57.128Z,76.89
2022-10-05T00:48:27.662Z,76.51
2022-10-05T00:52:07.732Z,76.54
2022-10-05T00:55:32.265Z,76.40
2022-10-05T00:59:17.599Z,75.26
2022-10-05T01:02:44.614Z,75.88
2022-10-05T01:06:42.662Z,75.78
2022-10-05T01:10:21.165Z,76.30
2022-10-05T01:14:24.173Z,75.12
2022-10-05T01:17:48.409Z,76.86
2022-10-05T01:21:27.291Z,76.34
2022-10-05T01:25:19.212Z,76.35
2022-10-05T01:29:01.796Z,77.36
2022-10-05T01:32:41.524Z,77.53
2022-10-05T01:36:20.326Z,77.88
2022-10-05T01:39:48.082Z,77.39
2022-10-05T01:43:42.355Z,76.47
2022-10-05T01:47:13.663Z,76.89
2022-10-05T01:50:56.791Z,76.76
2022-10-05T01:54:27.034Z,77.09
2022-10-05T01:57:51.582Z,77.16
2022-10-05T02:01:28.005Z,76.92
2022-10-05T02:05:09.864Z,76.02
2022-10-05T02:08:37.650Z,76.81
2022-10-05T02:12:07.222Z,76.86
2022-10-05T02:15:47.180Z,77.33
2022-10-05T02:19:39.899Z,76.30
2022-10-05T02:23:09.930Z,76.37
2022-10-05T02:26:33.363Z,76.52
2022-10-05T02:30:01.372Z,77.48
2022-10-05T02:33:30.683Z,76.90
2022-10-05T02:37:17.411Z,75.68
2022-10-05T02:40:51.114Z,75.81
2022-10-05T02:44:18.481Z,76.02
2022-10-05T02:47:58.390Z,76.81
2022-10-05T02:51:22.981Z,76.30
2022-10-05T02:55:00.839Z,76.06
2022-10-05T02:58:29.930Z,76.48
2022-10-05T03:01:57.630Z,76.88
2022-10-05T03:05:27.890Z,76.81
2022-10-05T03:09:06.514Z,77.40
2022-10-05T03:12:54.170Z,77.58
2022-10-05T03:16:22.174Z,76.87
2022-10-05T03:20:05.287Z,76.28
2022-10-05T03:23:59.769Z,75.92
2022-10-05T03:27:33.293Z,76.74
2022-10-05T03:31:11.191Z,76.35
2022-10-05T03:34:39.894Z,76.57
2022-10-05T03:38:24.701Z,76.34
2022-10-05T03:42:00.365Z,76.12
2022-10-05T03:45:33.175Z,76.93
2022-10-05T03:49:11.308Z,76.41
2022-10-05T03:52:47.734Z,77.13
2022-10-05T03:56:34.377Z,77.29
2022-10-05T04:00:04.902Z,77.05
2022-10-05T04:03:35.505Z,75.78
2022-10-05T04:07:01.557Z,76.83
2022-10-05T04:10:41.611Z,77.79
2022-10-05T04:14:11.093Z,78.14
2022-10-05T04:17:48.957Z,77.67
2022-10-05T04:21:37.130Z,77.87
2022-10-05T04:25:06.060Z,77.97
2022-10-05T04:28:54.601Z,78.10
2022-10-05T04:32:16.124Z,78.01
2022-10-05T04:36:26.053Z,77.66
2022-10-05T04:40:17.642Z,77.16
2022-10-05T04:43:45.623Z,75.87
2022-10-05T04:47:16.741Z,76.06
2022-10-05T04:51:01.401Z,76.07
2022-10-05T04:54:37.786Z,76.95
2022-10-05T04:58:19.248Z,76.87
2022-10-05T05:02:13.833Z,77.06
2022-10-05T05:06:12.124Z,76.70
2022-10-05T05:10:05.236Z,75.59
2022-10-05T05:13:50.506Z,76.86
2022-10-05T05:17:24.664Z,78.08
2022-10-05T05:21:02.238Z,78.10
2022-10-05T05:24:28.076Z,77.81
2022-10-05T05:28:14.971Z,77.56
2022-10-05T05:31:48.584Z,77.50
2022-10-05T05:35:29.982Z,77.53
2022-10-05T05:38:57.322Z,80.09
2022-10-05T05:42:51.125Z,79.40
2022-10-05T05:46:44.761Z,79.39
2022-10-05T05:50:41.858Z,79.45
2022-10-05T05:54:15.373Z,79.37
2022-10-05T05:57:59.079Z,79.40
2022-10-05T06:01:33.917Z,79.75
2022-10-05T06:05:02.618Z,84.87
2022-10-05T06:08:47.977Z,83.44
2022-10-05T06:12:15.161Z,80.21
2022-10-05T06:16:04.999Z,79.87
2022-10-05T06:19:28.289Z,80.43
2022-10-05T06:22:58.772Z,73.49
2022-10-05T06:26:46.138Z,74.00
2022-10-05T06:30:15.690Z,75.20
2022-10-05T06:33:43.756Z,75.47
2022-10-05T06:37:13.308Z,75.65
2022-10-05T06:40:53.472Z,75.26
2022-10-05T06:44:30.098Z,75.08
2022-10-05T06:47:58.627Z,77.44
2022-10-05T06:51:43.864Z,78.34
2022-10-05T06:55:30.358Z,81.44
2022-10-05T06:59:06.285Z,80.66
2022-10-05T07:03:05.298Z,79.88
2022-10-05T07:06:38.668Z,79.01
2022-10-05T07:10:29.228Z,77.48
2022-10-05T07:14:07.749Z,76.17
2022-10-05T07:18:02.664Z,75.02
2022-10-05T07:21:39.875Z,73.34
2022-10-05T07:25:28.897Z,73.95
2022-10-05T07:29:15.151Z,72.06
2022-10-05T07:32:44.637Z,73.79
2022-10-05T07:36:54.517Z,70.60
2022-10-05T07:40:35.099Z,70.62
2022-10-05T07:44:15.318Z,69.49
2022-10-05T07:47:54.288Z,68.44
2022-10-05T07:51:21.331Z,69.49
2022-10-05T07:55:02.316Z,67.51
2022-10-05T07:58:33.628Z,66.58
2022-10-05T08:02:34.044Z,69.49
2022-10-05T08:05:57.617Z,68.38
2022-10-05T08:09:45.424Z,66.23
2022-10-05T08:13:12.986Z,67.70
2022-10-05T08:16:38.544Z,73.84
2022-10-05T08:20:16.296Z,71.07
2022-10-05T08:24:04.093Z,66.27
2022-10-05T08:27:52.204Z,64.16
2022-10-05T08:31:30.041Z,75.95
2022-10-05T08:34:59.959Z,61.82
2022-10-05T08:38:31.698Z,61.56
2022-10-05T08:42:10.771Z,61.91
2022-10-05T08:45:50.089Z,60.94
2022-10-05T08:49:56.777Z,58.76
2022-10-05T08:53:21.517Z,57.79
2022-10-05T08:56:45.223Z,55.85
2022-10-05T09:00:10.653Z,57.75
2022-10-05T09:04:01.043Z,55.47
2022-10-05T09:07:49.990Z,53.40
2022-10-05T09:11:15.080Z,55.42
2022-10-05T09:14:38.970Z,57.32
2022-10-05T09:18:03.611Z,55.87
2022-10-05T09:21:50.513Z,56.50
2022-10-05T09:25:44.272Z,57.18
2022-10-05T09:29:27.471Z,58.07
2022-10-05T09:33:36.793Z,58.95
2022-10-05T09:37:27.688Z,57.21
2022-10-05T09:41:01.375Z,54.83
2022-10-05T09:44:36.435Z,55.79
2022-10-05T09:48:23.813Z,53.50
2022-10-05T09:52:25.696Z,54.43
2022-10-05T09:56:26.106Z,57.28
2022-10-05T09:59:59.937Z,57.74
2022-10-05T10:03:59.857Z,56.39
2022-10-05T10:07:45.560Z,54.00
2022-10-05T10:11:41.076Z,55.39
2022-10-05T10:15:21.067Z,55.92
2022-10-05T10:19:04.111Z,55.22
2022-10-05T10:23:02.405Z,52.68
2022-10-05T10:26:38.394Z,50.90
2022-10-05T10:30:19.079Z,52.61
2022-10-05T10:34:04.827Z,53.14
2022-10-05T10:37:39.341Z,53.00
2022-10-05T10:41:25.687Z,57.07
2022-10-05T10:45:15.060Z,58.03
2022-10-05T10:49:03.904Z,57.79
2022-10-05T10:52:28.391Z,57.16
2022-10-05T10:56:08.746Z,54.89
2022-10-05T11:00:08.273Z,53.17
2022-10-05T11:03:49.077Z,52.69
2022-10-05T11:07:41.684Z,52.51
2022-10-05T11:11:27.149Z,52.87
2022-10-05T11:15:13.237Z,52.08
2022-10-05T11:19:04.077Z,50.93
2022-10-05T11:22:33.823Z,52.68
2022-10-05T11:26:04.305Z,50.56
2022-10-05T11:29:48.613Z,52.72
2022-10-05T11:33:11.347Z,53.01
2022-10-05T11:36:54.793Z,53.80
2022-10-05T11:40:25.703Z,54.19
2022-10-05T11:43:56.646Z,54.90
2022-10-05T11:47:37.215Z,55.05
2022-10-05T11:51:34.301Z,53.85
2022-10-05T11:55:21.712Z,54.18
2022-10-05T11:58:56.120Z,55.04
2022-10-05T12:02:55.419Z,57.48
2022-10-05T12:06:21.545Z,55.90
2022-10-05T12:10:21.255Z,56.15
2022-10-05T12:13:53.126Z,57.95
2022-10-05T12:17:25.896Z,57.40
2022-10-05T12:21:14.822Z,58.73
2022-10-05T12:24:38.756Z,58.18
2022-10-05T12:28:09.546Z,58.25
2022-10-05T12:32:04.393Z,57.92
2022-10-05T12:35:47.450Z,58.22
2022-10-05T12:39:28.481Z,58.04
2022-10-05T12:42:52.968Z,58.81
2022-10-05T12:46:29.513Z,58.78
2022-10-05T12:50:10.769Z,57.35
2022-10-05T12:53:53.980Z,58.13
2022-10-05T12:57:35.340Z,58.73
2022-10-05T13:01:25.448Z,58.55
2022-10-05T13:05:11.378Z,56.74
2022-10-05T13:08:51.974Z,56.86
2022-10-05T13:12:39.568Z,57.41
2022-10-05T13:16:35.617Z,58.03
2022-10-05T13:20:03.691Z,57.93
2022-10-05T13:23:43.715Z,56.08
2022-10-05T13:27:22.832Z,55.22
2022-10-05T13:31:24.688Z,55.96
2022-10-05T13:35:11.403Z,56.90
2022-10-05T13:38:36.346Z,56.00
2022-10-05T13:42:08.195Z,55.13
2022-10-05T13:45:42.472Z,56.23
2022-10-05T13:49:16.084Z,57.20
2022-10-05T13:52:39.964Z,57.60
2022-10-05T13:56:23.631Z,57.15
2022-10-05T13:59:58.191Z,57.75
2022-10-05T14:03:38.383Z,57.47
2022-10-05T14:07:22.152Z,58.04
2022-10-05T14:10:47.828Z,57.93
2022-10-05T14:14:10.130Z,57.63
2022-10-05T14:17:43.522Z,62.37
2022-10-05T14:21:10.112Z,64.16
2022-10-05T14:24:45.681Z,57.16
2022-10-05T14:28:15.527Z,57.07
2022-10-05T14:31:47.404Z,57.28
2022-10-05T14:35:17.083Z,57.51
2022-10-05T14:38:56.913Z,57.58
2022-10-05T14:42:28.380Z,57.37
2022-10-05T14:46:03.441Z,57.46
2022-10-05T14:49:36.190Z,57.96
2022-10-05T14:53:25.006Z,57.67
2022-10-05T14:57:11.310Z,56.80
2022-10-05T15:00:49.013Z,57.90
2022-10-05T15:04:30.376Z,58.06
2022-10-05T15:07:57.775Z,58.55
2022-10-05T15:11:49.265Z,58.45
2022-10-05T15:15:34.520Z,58.28
2022-10-05T15:19:04.444Z,58.86
2022-10-05T15:22:41.193Z,59.51
2022-10-05T15:26:22.386Z,58.41
2022-10-05T15:30:09.232Z,59.46
2022-10-05T15:33:40.616Z,59.46
2022-10-05T15:37:21.025Z,59.86
2022-10-05T15:40:47.141Z,60.07
2022-10-05T15:44:38.995Z,59.81
2022-10-05T15:48:23.950Z,60.83
2022-10-05T15:52:05.952Z,60.88
2022-10-05T15:55:33.272Z,60.33
2022-10-05T15:59:04.625Z,60.48
2022-10-05T16:02:54.551Z,60.85
2022-10-05T16:06:47.036Z,61.60
2022-10-05T16:10:14.360Z,61.48
2022-10-05T16:13:44.716Z,61.87
2022-10-05T16:17:27.838Z,62.44
2022-10-05T16:21:23.288Z,62.51
2022-10-05T16:25:08.796Z,62.44
2022-10-05T16:28:56.102Z,62.93
2022-10-05T16:32:24.969Z,63.17
2022-10-05T16:36:22.729Z,63.65
2022-10-05T16:40:02.810Z,64.24
2022-10-05T16:43:59.755Z,63.76
2022-10-05T16:47:39.689Z,63.53
2022-10-05T16:51:19.438Z,63.98
2022-10-05T16:54:51.664Z,64.07
2022-10-05T16:58:27.378Z,63.92
2022-10-05T17:02:17.869Z,65.64
2022-10-05T17:05:49.565Z,65.78
2022-10-05T17:09:41.106Z,64.77
2022-10-05T17:13:19.688Z,65.78
2022-10-05T17:16:56.312Z,66.19
2022-10-05T17:20:46.653Z,66.22
2022-10-05T17:24:10.992Z,66.19
2022-10-05T17:27:35.258Z,67.43
2022-10-05T17:30:58.954Z,67.14
2022-10-05T17:34:20.680Z,67.62
2022-10-05T17:37:44.419Z,67.09
2022-10-05T17:41:12.014Z,67.57
2022-10-05T17:44:33.573Z,67.71
2022-10-05T17:48:44.528Z,67.47
2022-10-05T17:52:46.639Z,68.08
2022-10-05T17:56:10.451Z,68.36
2022-10-05T17:59:37.795Z,68.79
2022-10-05T18:02:59.535Z,68.94
2022-10-05T18:06:25.035Z,68.78
2022-10-05T18:10:28.674Z,68.59
2022-10-05T18:14:15.497Z,69.29
2022-10-05T18:17:47.363Z,67.53
2022-10-05T18:21:15.051Z,67.86
2022-10-05T18:24:56.054Z,67.75
2022-10-05T18:28:55.313Z,69.18
2022-10-05T18:32:40.925Z,69.25
2022-10-05T18:36:12.903Z,68.09
2022-10-05T18:39:54.171Z,67.79
2022-10-05T18:43:42.563Z,67.33
2022-10-05T18:47:19.961Z,67.30
2022-10-05T18:50:50.721Z,67.98
2022-10-05T18:54:41.129Z,67.77
2022-10-05T18:58:11.411Z,67.85
2022-10-05T19:01:42.026Z,67.62
2022-10-05T19:05:18.938Z,67.62
2022-10-05T19:09:17.586Z,69.16
2022-10-05T19:12:54.119Z,70.27
2022-10-05T19:16:30.930Z,70.35
2022-10-05T19:20:04.516Z,80.48
2022-10-05T19:23:54.107Z,80.69
2022-10-05T19:27:18.591Z,73.32
2022-10-05T19:31:09.446Z,72.80
2022-10-05T19:34:46.108Z,73.00
2022-10-05T19:38:35.085Z,70.05
2022-10-05T19:42:06.809Z,67.77
2022-10-05T19:45:33.636Z,67.53
2022-10-05T19:48:57.817Z,68.51
2022-10-05T19:52:28.436Z,68.96
2022-10-05T19:55:55.660Z,73.28
2022-10-05T19:59:19.812Z,74.50
2022-10-05T20:02:44.352Z,73.83
2022-10-05T20:06:10.839Z,72.86
2022-10-05T20:09:53.851Z,73.50
2022-10-05T20:13:22.436Z,69.62
2022-10-05T20:17:02.497Z,69.09
2022-10-05T20:20:45.777Z,70.07
2022-10-05T20:24:15.110Z,70.38
2022-10-05T20:27:43.768Z,71.06
2022-10-05T20:31:12.475Z,71.94
2022-10-05T20:34:38.064Z,72.55
2022-10-05T20:38:00.218Z,73.28
2022-10-05T20:41:21.992Z,73.39
2022-10-05T20:44:44.168Z,73.22
2022-10-05T20:48:05.901Z,73.58
2022-10-05T20:51:30.169Z,74.13
2022-10-05T20:54:58.838Z,78.10
2022-10-05T20:58:20.710Z,77.78
2022-10-05T21:01:47.897Z,72.99
2022-10-05T21:05:09.645Z,73.15
2022-10-05T21:08:37.042Z,73.64
2022-10-05T21:12:03.642Z,74.13
2022-10-05T21:15:29.918Z,74.27
2022-10-05T21:18:53.761Z,74.71
2022-10-05T21:22:15.349Z,75.54
2022-10-05T21:25:37.126Z,75.69
2022-10-05T21:29:02.344Z,76.24
2022-10-05T21:32:26.116Z,76.11
2022-10-05T21:35:52.844Z,75.79
2022-10-05T21:39:19.246Z,75.92
2022-10-05T21:42:43.108Z,76.51
2022-10-05T21:46:07.917Z,76.46
2022-10-05T21:49:30.002Z,76.69
2022-10-05T21:52:51.978Z,76.11
2022-10-05T21:56:18.055Z,76.57
2022-10-05T21:59:42.999Z,77.26
2022-10-05T22:03:04.643Z,76.39
2022-10-05T22:06:26.179Z,76.88
2022-10-05T22:09:53.696Z,77.05
2022-10-05T22:13:16.686Z,76.78
2022-10-05T22:16:41.386Z,76.62
2022-10-05T22:20:05.457Z,76.65
2022-10-05T22:23:27.050Z,77.60
2022-10-05T22:26:51.507Z,77.25
2022-10-05T22:30:17.649Z,77.79
2022-10-05T22:33:39.979Z,77.21
2022-10-05T22:37:06.195Z,76.77
2022-10-05T22:40:30.407Z,77.03
2022-10-05T22:43:54.292Z,77.46
2022-10-05T22:47:15.845Z,77.11
2022-10-05T22:50:37.581Z,77.47
2022-10-05T22:53:59.133Z,77.98
2022-10-05T22:57:20.667Z,77.84
2022-10-05T23:00:58.107Z,77.57
2022-10-05T23:04:22.676Z,77.78
2022-10-05T23:07:46.693Z,77.49
2022-10-05T23:11:16.734Z,77.65
2022-10-05T23:14:41.576Z,77.19
2022-10-05T23:18:03.193Z,77.49
2022-10-05T23:21:27.612Z,77.04
2022-10-05T23:24:49.163Z,77.25
2022-10-05T23:28:13.162Z,77.80
2022-10-05T23:31:37.757Z,78.05
2022-10-05T23:35:01.416Z,78.25
2022-10-05T23:38:25.942Z,78.61
2022-10-05T23:41:47.782Z,78.12
2022-10-05T23:45:11.423Z,77.89
2022-10-05T23:48:38.260Z,77.33
2022-10-05T23:52:00.008Z,77.85
2022-10-05T23:55:21.819Z,78.40
2022-10-05T23:58:48.320Z,78.90
